Thunder radar more information blitzortung!


Radar de pluja more information rain snow radar


Visita la nostra xarxa de llocs de meteo:

Template documentation
and downloads

And another site



Wind From: 11-12-2017 11:00 Until: 14:59 warning for: Wind Level: Yellow info button

Pagina Historial Weather Underground text

Diari Resum Setembre 6, 2017 Unitats:  Mètric    Imperial   Tant
« Previous Dia
SegĂźent Dia »
Diari Setmana Mensual Anual Personalitzada
  Maxima: Minima: Media:
Temperatura: 29.8 °C 19.3 °C 24.3 °C
Punt de rosada: 20.1 °C 11.3 °C 18.2 °C
Humitat: 88 % 53 % 69 %
Wind Speed: 22.2 km/h 0.0 km/h 5.3 km/h
RĂ fegues de vent: 22.2 km/h - -
Vent:- - South
Pression baro: 1020.9 hPa 1015.8 hPa -
Precipitacions: 0.0 mm    
Historical Graphs
 
 
Dades de taula per Setembre 6, 2017
Temps Temperatura Punt de rosada Pression baro Vent Wind Speed RĂ fegues de vent Humitat Rainfall Rate (Hourly)
00:00 20.8 °C 18.4 °C 1019.9 hPa SW 1.6 km/h 1.6 km/h 86 % 0.0 mm
00:02 22.6 °C 17.9 °C 1019.9 hPa WSW 3.7 km/h 3.7 km/h 75 % 0.0 mm
00:10 20.8 °C 18.4 °C 1019.9 hPa Calm   3.2 km/h 86 % 0.0 mm
00:20 20.5 °C 18.1 °C 1019.9 hPa ESE 1.6 km/h 3.2 km/h 86 % 0.0 mm
00:30 20.4 °C 18.0 °C 1019.9 hPa SSW 1.6 km/h 3.2 km/h 86 % 0.0 mm
00:40 20.1 °C 17.5 °C 1019.9 hPa SW 3.2 km/h 4.8 km/h 85 % 0.0 mm
00:50 20.0 °C 17.6 °C 1019.9 hPa Calm   4.8 km/h 86 % 0.0 mm
01:00 20.0 °C 17.8 °C 1019.9 hPa Calm     87 % 0.0 mm
01:10 20.0 °C 17.8 °C 1019.9 hPa Calm   1.6 km/h 87 % 0.0 mm
01:20 20.0 °C 17.8 °C 1019.9 hPa Calm     87 % 0.0 mm
01:30 19.8 °C 17.6 °C 1018.8 hPa NNE 1.6 km/h 1.6 km/h 87 % 0.0 mm
01:40 19.8 °C 17.8 °C 1019.9 hPa Calm     88 % 0.0 mm
01:50 19.8 °C 17.8 °C 1019.9 hPa Calm     88 % 0.0 mm
02:00 19.8 °C 17.8 °C 1019.9 hPa Calm     88 % 0.0 mm
02:10 19.8 °C 17.8 °C 1018.8 hPa Calm   1.6 km/h 88 % 0.0 mm
02:20 19.7 °C 17.7 °C 1018.8 hPa Calm     88 % 0.0 mm
02:30 19.4 °C 17.3 °C 1019.9 hPa Calm   3.2 km/h 88 % 0.0 mm
02:40 19.5 °C 17.4 °C 1019.9 hPa Calm     88 % 0.0 mm
02:50 19.5 °C 17.4 °C 1019.9 hPa Calm   1.6 km/h 88 % 0.0 mm
03:00 19.3 °C 17.3 °C 1018.8 hPa Calm   3.2 km/h 88 % 0.0 mm
03:10 19.3 °C 17.3 °C 1018.8 hPa Calm   3.2 km/h 88 % 0.0 mm
03:20 19.3 °C 17.1 °C 1018.8 hPa SW 3.2 km/h 4.8 km/h 87 % 0.0 mm
03:30 19.3 °C 17.3 °C 1019.9 hPa Calm   4.8 km/h 88 % 0.0 mm
03:40 19.3 °C 17.3 °C 1019.9 hPa SW 1.6 km/h 3.2 km/h 88 % 0.0 mm
03:50 19.6 °C 17.6 °C 1019.9 hPa SW 1.6 km/h 3.2 km/h 88 % 0.0 mm
04:00 20.6 °C 18.6 °C 1019.9 hPa Calm   1.6 km/h 88 % 0.0 mm
04:10 20.7 °C 18.3 °C 1019.9 hPa SW 1.6 km/h 3.2 km/h 86 % 0.0 mm
04:20 21.0 °C 18.2 °C 1019.9 hPa SW 1.6 km/h 3.2 km/h 84 % 0.0 mm
04:30 21.9 °C 18.9 °C 1019.9 hPa Calm   3.2 km/h 83 % 0.0 mm
04:40 22.7 °C 19.4 °C 1019.9 hPa Calm   3.2 km/h 82 % 0.0 mm
04:50 23.9 °C 20.1 °C 1019.9 hPa ENE 1.6 km/h 3.2 km/h 79 % 0.0 mm
09:54 23.4 °C 19.1 °C 1019.9 hPa East 3.7 km/h 3.7 km/h 77 % 0.0 mm
09:55 23.4 °C 19.1 °C 1019.9 hPa East 3.7 km/h 3.7 km/h 77 % 0.0 mm
10:00 23.6 °C 19.3 °C 1019.9 hPa SSE 5.3 km/h 5.3 km/h 77 % 0.0 mm
10:05 23.5 °C 19.2 °C 1019.9 hPa SW 3.7 km/h 3.7 km/h 77 % 0.0 mm
10:10 23.5 °C 19.2 °C 1019.9 hPa SE 1.9 km/h 1.9 km/h 77 % 0.0 mm
10:15 23.7 °C 19.2 °C 1019.9 hPa SW 3.7 km/h 3.7 km/h 76 % 0.0 mm
10:20 24.0 °C 19.3 °C 1019.9 hPa South 7.4 km/h 7.4 km/h 75 % 0.0 mm
10:25 24.2 °C 19.5 °C 1020.9 hPa South 6.1 km/h 6.1 km/h 75 % 0.0 mm
10:30 24.1 °C 19.2 °C 1020.9 hPa ENE 1.9 km/h 1.9 km/h 74 % 0.0 mm
10:35 24.0 °C 19.1 °C 1020.9 hPa ESE 4.7 km/h 4.7 km/h 74 % 0.0 mm
10:36 24.0 °C 19.1 °C 1020.9 hPa SE 3.7 km/h 3.7 km/h 74 % 0.0 mm
10:41 23.8 °C 18.9 °C 1019.9 hPa WSW 3.7 km/h 3.7 km/h 74 % 0.0 mm
10:46 23.8 °C 18.9 °C 1019.9 hPa SW 5.6 km/h 5.6 km/h 74 % 0.0 mm
10:51 24.0 °C 18.7 °C 1019.9 hPa SSE 5.6 km/h 5.6 km/h 72 % 0.0 mm
10:56 24.5 °C 19.3 °C 1020.9 hPa SW 1.9 km/h 1.9 km/h 73 % 0.0 mm
11:01 24.7 °C 19.3 °C 1020.9 hPa SW 1.9 km/h 1.9 km/h 72 % 0.0 mm
11:06 24.6 °C 19.0 °C 1020.9 hPa South 7.4 km/h 7.4 km/h 71 % 0.0 mm
11:11 24.7 °C 19.1 °C 1020.9 hPa SW 1.9 km/h   71 % 0.0 mm
11:16 24.9 °C 19.3 °C 1020.9 hPa NNE 3.9 km/h 3.9 km/h 71 % 0.0 mm
11:21 24.8 °C 19.2 °C 1020.9 hPa NE 3.7 km/h 3.7 km/h 71 % 0.0 mm
11:26 24.6 °C 19.0 °C 1019.9 hPa SW 7.4 km/h 7.4 km/h 71 % 0.0 mm
11:31 24.9 °C 19.1 °C 1019.9 hPa SW 4.7 km/h 4.7 km/h 70 % 0.0 mm
11:36 25.0 °C 18.7 °C 1019.9 hPa SSE 7.4 km/h 7.4 km/h 68 % 0.0 mm
11:41 25.3 °C 18.7 °C 1019.9 hPa ENE 3.9 km/h   67 % 0.0 mm
11:46 25.3 °C 18.5 °C 1019.9 hPa ESE 5.6 km/h 5.6 km/h 66 % 0.0 mm
11:51 25.5 °C 18.9 °C 1019.9 hPa NE 5.6 km/h 5.6 km/h 67 % 0.0 mm
11:56 25.5 °C 18.7 °C 1020.9 hPa NNE 4.7 km/h 4.7 km/h 66 % 0.0 mm
12:01 25.8 °C 18.7 °C 1020.9 hPa SSE 7.4 km/h 7.4 km/h 65 % 0.0 mm
12:06 26.4 °C 19.6 °C 1020.9 hPa NNE 3.7 km/h 3.7 km/h 66 % 0.0 mm
12:11 27.0 °C 19.6 °C 1019.9 hPa SW 5.6 km/h 5.6 km/h 64 % 0.0 mm
12:16 26.9 °C 19.8 °C 1019.9 hPa WSW 5.6 km/h 5.6 km/h 65 % 0.0 mm
12:21 27.1 °C 19.2 °C 1019.9 hPa SSE 5.6 km/h 5.6 km/h 62 % 0.0 mm
12:26 27.2 °C 19.3 °C 1018.8 hPa SW 6.1 km/h 6.1 km/h 62 % 0.0 mm
12:31 27.1 °C 19.2 °C 1018.8 hPa WSW 6.9 km/h 6.9 km/h 62 % 0.0 mm
12:36 26.8 °C 18.9 °C 1018.8 hPa South 3.7 km/h 3.7 km/h 62 % 0.0 mm
12:41 26.8 °C 19.2 °C 1019.9 hPa WSW 6.1 km/h 6.1 km/h 63 % 0.0 mm
12:46 27.0 °C 18.8 °C 1019.9 hPa West 5.6 km/h 5.6 km/h 61 % 0.0 mm
12:51 27.0 °C 18.6 °C 1019.9 hPa SW 9.3 km/h 9.3 km/h 60 % 0.0 mm
12:56 27.6 °C 18.9 °C 1019.9 hPa SSE 3.7 km/h 3.7 km/h 59 % 0.0 mm
13:01 27.6 °C 18.3 °C 1019.9 hPa East 9.3 km/h 9.3 km/h 57 % 0.0 mm
13:06 27.7 °C 18.4 °C 1019.9 hPa East 7.4 km/h 7.4 km/h 57 % 0.0 mm
13:11 27.8 °C 18.5 °C 1019.9 hPa East 5.6 km/h 5.6 km/h 57 % 0.0 mm
13:16 28.1 °C 18.2 °C 1019.9 hPa South 5.6 km/h 5.6 km/h 55 % 0.0 mm
13:21 27.7 °C 17.6 °C 1019.9 hPa ESE 9.3 km/h 9.3 km/h 54 % 0.0 mm
13:31 27.3 °C 18.3 °C 1018.8 hPa North 1.9 km/h 2.3 km/h 58 % 0.0 mm
13:36 27.3 °C 17.8 °C 1018.8 hPa East 9.3 km/h 9.3 km/h 56 % 0.0 mm
13:41 27.0 °C 17.8 °C 1018.8 hPa NW 7.4 km/h 7.4 km/h 57 % 0.0 mm
13:46 27.0 °C 18.1 °C 1018.8 hPa ENE 9.7 km/h 9.7 km/h 58 % 0.0 mm
13:51 27.3 °C 18.6 °C 1018.8 hPa ESE 11.1 km/h 11.1 km/h 59 % 0.0 mm
13:56 27.2 °C 18.2 °C 1018.8 hPa North 9.3 km/h 9.3 km/h 58 % 0.0 mm
14:01 26.9 °C 18.5 °C 1018.8 hPa East 11.1 km/h 11.1 km/h 60 % 0.0 mm
14:06 26.8 °C 18.7 °C 1018.8 hPa WSW 5.6 km/h 5.6 km/h 61 % 0.0 mm
14:11 27.4 °C 18.7 °C 1018.8 hPa SE 4.7 km/h 4.7 km/h 59 % 0.0 mm
14:16 28.0 °C 18.9 °C 1018.8 hPa SSE 5.6 km/h 5.6 km/h 58 % 0.0 mm
14:21 27.6 °C 18.6 °C 1018.8 hPa ESE 9.5 km/h 9.5 km/h 58 % 0.0 mm
14:26 27.5 °C 18.5 °C 1017.8 hPa SSE 4.2 km/h 4.2 km/h 58 % 0.0 mm
14:31 27.4 °C 18.4 °C 1017.8 hPa SSE 5.6 km/h 5.6 km/h 58 % 0.0 mm
14:36 27.0 °C 18.6 °C 1017.8 hPa ESE 13.0 km/h 13.0 km/h 60 % 0.0 mm
14:41 26.7 °C 18.6 °C 1018.8 hPa ESE 9.7 km/h 9.7 km/h 61 % 0.0 mm
14:46 27.0 °C 18.6 °C 1018.8 hPa SE 10.0 km/h 10.0 km/h 60 % 0.0 mm
14:51 26.8 °C 18.7 °C 1018.8 hPa ESE 14.8 km/h 14.8 km/h 61 % 0.0 mm
14:56 26.3 °C 18.4 °C 1017.8 hPa ESE 16.7 km/h 16.7 km/h 62 % 0.0 mm
15:01 26.4 °C 18.6 °C 1017.8 hPa ESE 12.2 km/h 12.2 km/h 62 % 0.0 mm
15:06 26.4 °C 18.6 °C 1017.8 hPa ENE 16.7 km/h 16.7 km/h 62 % 0.0 mm
15:11 26.3 °C 18.4 °C 1017.8 hPa ENE 16.7 km/h 16.7 km/h 62 % 0.0 mm
15:16 26.5 °C 18.6 °C 1017.8 hPa SE 11.9 km/h 11.9 km/h 62 % 0.0 mm
15:21 26.5 °C 18.4 °C 1017.8 hPa East 11.1 km/h 11.1 km/h 61 % 0.0 mm
15:26 26.5 °C 18.4 °C 1017.8 hPa East 11.1 km/h 11.1 km/h 61 % 0.0 mm
15:31 26.5 °C 18.4 °C 1017.8 hPa SE 11.1 km/h 11.1 km/h 61 % 0.0 mm
15:36 26.5 °C 18.4 °C 1017.8 hPa ESE 9.5 km/h 9.5 km/h 61 % 0.0 mm
15:41 27.1 °C 18.7 °C 1016.8 hPa East 7.4 km/h 7.4 km/h 60 % 0.0 mm
15:46 27.6 °C 18.9 °C 1016.8 hPa SE 4.7 km/h 4.7 km/h 59 % 0.0 mm
15:51 28.1 °C 19.1 °C 1016.8 hPa SSW 8.7 km/h 8.7 km/h 58 % 0.0 mm
15:56 27.8 °C 18.5 °C 1017.8 hPa East 7.4 km/h 7.4 km/h 57 % 0.0 mm
16:01 28.1 °C 19.1 °C 1017.8 hPa SSW 3.7 km/h 3.7 km/h 58 % 0.0 mm
16:06 28.7 °C 19.3 °C 1017.8 hPa SW 5.6 km/h 5.6 km/h 57 % 0.0 mm
16:11 29.0 °C 19.3 °C 1016.8 hPa SSE 7.4 km/h 7.4 km/h 56 % 0.0 mm
16:12 29.2 °C 19.2 °C 1016.8 hPa SW 6.9 km/h 6.9 km/h 55 % 0.0 mm
16:17 29.4 °C 19.4 °C 1016.8 hPa SE 9.3 km/h 9.3 km/h 55 % 0.0 mm
16:22 28.9 °C 18.7 °C 1017.8 hPa WSW 5.6 km/h 5.6 km/h 54 % 0.0 mm
16:27 28.6 °C 18.7 °C 1017.8 hPa SW 10.3 km/h 10.3 km/h 55 % 0.0 mm
16:32 28.9 °C 18.9 °C 1017.8 hPa SSW 9.3 km/h 9.3 km/h 55 % 0.0 mm
16:33 28.9 °C 18.9 °C 1017.8 hPa ESE 9.3 km/h 9.3 km/h 55 % 0.0 mm
16:38 29.3 °C 19.1 °C 1016.8 hPa West 7.6 km/h 7.6 km/h 54 % 0.0 mm
16:43 29.5 °C 18.9 °C 1016.8 hPa SSW 7.9 km/h 7.9 km/h 53 % 0.0 mm
16:48 29.8 °C 19.2 °C 1016.8 hPa West 10.0 km/h 10.0 km/h 53 % 0.0 mm
16:53 29.4 °C 18.8 °C 1016.8 hPa West 14.8 km/h 14.8 km/h 53 % 0.0 mm
16:58 28.8 °C 18.6 °C 1016.8 hPa SW 7.4 km/h 7.4 km/h 54 % 0.0 mm
17:03 28.6 °C 18.4 °C 1016.8 hPa SW 11.1 km/h 11.1 km/h 54 % 0.0 mm
17:08 28.4 °C 18.2 °C 1016.8 hPa SSE 7.4 km/h 7.4 km/h 54 % 0.0 mm
17:18 28.2 °C 18.0 °C 1016.8 hPa WSW 17.2 km/h 17.2 km/h 54 % 0.0 mm
17:23 27.8 °C 17.9 °C 1015.8 hPa SSW 13.0 km/h 13.0 km/h 55 % 0.0 mm
17:28 27.3 °C 17.8 °C 1015.8 hPa South 14.8 km/h 14.8 km/h 56 % 0.0 mm
17:33 27.0 °C 17.5 °C 1015.8 hPa South 11.1 km/h 11.1 km/h 56 % 0.0 mm
17:38 27.0 °C 17.5 °C 1015.8 hPa WSW 11.1 km/h 11.1 km/h 56 % 0.0 mm
17:43 27.1 °C 17.8 °C 1015.8 hPa South 6.9 km/h 6.9 km/h 57 % 0.0 mm
17:48 26.8 °C 17.8 °C 1015.8 hPa WSW 11.1 km/h 11.1 km/h 58 % 0.0 mm
17:53 26.7 °C 17.8 °C 1015.8 hPa SW 9.3 km/h 9.3 km/h 58 % 0.0 mm
17:58 26.7 °C 18.0 °C 1015.8 hPa SSW 9.3 km/h 9.3 km/h 59 % 0.0 mm
18:03 26.7 °C 18.0 °C 1015.8 hPa SW 14.8 km/h 14.8 km/h 59 % 0.0 mm
18:08 26.5 °C 18.1 °C 1016.8 hPa South 7.4 km/h 7.4 km/h 60 % 0.0 mm
18:13 26.4 °C 18.0 °C 1016.8 hPa SSW 11.1 km/h 11.1 km/h 60 % 0.0 mm
18:18 26.4 °C 18.0 °C 1016.8 hPa SW 4.7 km/h 4.7 km/h 60 % 0.0 mm
18:19 26.4 °C 18.0 °C 1016.8 hPa SW 11.1 km/h 11.1 km/h 60 % 0.0 mm
18:24 26.2 °C 17.8 °C 1015.8 hPa WSW 11.1 km/h 11.1 km/h 60 % 0.0 mm
18:29 26.0 °C 17.9 °C 1015.8 hPa SSW 11.1 km/h 11.1 km/h 61 % 0.0 mm
18:34 25.8 °C 17.7 °C 1015.8 hPa SW 13.0 km/h 13.0 km/h 61 % 0.0 mm
18:39 25.9 °C 18.1 °C 1016.8 hPa ESE 5.6 km/h 5.6 km/h 62 % 0.0 mm
18:44 26.0 °C 18.2 °C 1016.8 hPa SW 1.9 km/h 2.3 km/h 62 % 0.0 mm
18:49 26.2 °C 18.1 °C 1016.8 hPa SW 22.2 km/h 22.2 km/h 61 % 0.0 mm
18:54 26.0 °C 18.2 °C 1016.8 hPa West 11.4 km/h 11.4 km/h 62 % 0.0 mm
18:59 25.7 °C 17.9 °C 1016.8 hPa South 7.4 km/h 7.4 km/h 62 % 0.0 mm
19:04 25.6 °C 17.8 °C 1016.8 hPa SW 9.3 km/h 9.3 km/h 62 % 0.0 mm
19:09 25.4 °C 17.6 °C 1016.8 hPa SW 13.0 km/h 13.0 km/h 62 % 0.0 mm
19:10 22.8 °C 18.8 °C 1017.8 hPa Calm     78 % 0.0 mm
19:14 25.2 °C 17.7 °C 1016.8 hPa South 11.1 km/h 11.1 km/h 63 % 0.0 mm
19:19 25.2 °C 17.7 °C 1016.8 hPa SSW 5.6 km/h 5.6 km/h 63 % 0.0 mm
19:24 25.1 °C 17.8 °C 1016.8 hPa South 7.4 km/h 7.4 km/h 64 % 0.0 mm
19:29 25.0 °C 17.7 °C 1016.8 hPa SSW 11.1 km/h 11.1 km/h 64 % 0.0 mm
19:30 22.7 °C 18.7 °C 1017.8 hPa Calm     78 % 0.0 mm
19:34 24.9 °C 17.9 °C 1016.8 hPa South 9.3 km/h 9.3 km/h 65 % 0.0 mm
19:39 24.8 °C 17.8 °C 1017.8 hPa SW 5.6 km/h 5.6 km/h 65 % 0.0 mm
19:40 22.7 °C 18.9 °C 1017.8 hPa Calm     79 % 0.0 mm
19:44 24.6 °C 17.8 °C 1017.8 hPa SW 9.3 km/h 9.3 km/h 66 % 0.0 mm
19:45 22.7 °C 18.9 °C 1017.8 hPa Calm     79 % 0.0 mm
19:49 24.5 °C 17.7 °C 1017.8 hPa WSW 6.1 km/h 6.1 km/h 66 % 0.0 mm
19:54 24.4 °C 17.9 °C 1017.8 hPa West 5.6 km/h 5.6 km/h 67 % 0.0 mm
19:55 22.7 °C 18.9 °C 1017.8 hPa Calm   1.6 km/h 79 % 0.0 mm
19:59 24.3 °C 17.6 °C 1017.8 hPa West 10.0 km/h 10.0 km/h 66 % 0.0 mm
20:04 24.2 °C 17.7 °C 1017.8 hPa SSW 3.7 km/h 3.7 km/h 67 % 0.0 mm
20:05 22.6 °C 18.8 °C 1017.8 hPa Calm     79 % 0.0 mm
20:09 24.1 °C 17.6 °C 1017.8 hPa WSW 3.7 km/h 3.7 km/h 67 % 0.0 mm
20:14 24.1 °C 17.6 °C 1017.8 hPa SSW 5.6 km/h 5.6 km/h 67 % 0.0 mm
20:15 22.5 °C 18.7 °C 1017.8 hPa Calm     79 % 0.0 mm
20:19 24.1 °C 17.8 °C 1017.8 hPa WSW 2.6 km/h   68 % 0.0 mm
20:24 24.1 °C 17.8 °C 1017.8 hPa SSE 3.9 km/h 3.9 km/h 68 % 0.0 mm
20:25 22.3 °C 18.7 °C 1017.8 hPa Calm     80 % 0.0 mm
20:29 24.1 °C 17.8 °C 1017.8 hPa SW 5.6 km/h 5.6 km/h 68 % 0.0 mm
20:34 24.0 °C 17.7 °C 1017.8 hPa SW 3.7 km/h 3.7 km/h 68 % 0.0 mm
20:35 22.1 °C 18.5 °C 1017.8 hPa NNW 1.6 km/h 3.2 km/h 80 % 0.0 mm
20:39 24.0 °C 17.7 °C 1017.8 hPa South 5.6 km/h 5.6 km/h 68 % 0.0 mm
20:44 24.0 °C 17.7 °C 1017.8 hPa SW 3.9 km/h 3.9 km/h 68 % 0.0 mm
20:45 22.0 °C 18.4 °C 1017.8 hPa NNE 1.6 km/h 3.2 km/h 80 % 0.0 mm
20:49 24.0 °C 17.7 °C 1017.8 hPa SSW 5.6 km/h 5.6 km/h 68 % 0.0 mm
20:54 23.9 °C 18.1 °C 1017.8 hPa SSW 1.9 km/h 1.9 km/h 70 % 0.0 mm
20:55 21.9 °C 18.3 °C 1017.8 hPa Calm   1.6 km/h 80 % 0.0 mm
20:59 23.8 °C 17.8 °C 1017.8 hPa South 5.6 km/h 5.6 km/h 69 % 0.0 mm
21:04 23.7 °C 17.9 °C 1017.8 hPa WSW 5.6 km/h 5.6 km/h 70 % 0.0 mm
21:05 22.0 °C 18.8 °C 1017.8 hPa ENE 1.6 km/h 3.2 km/h 82 % 0.0 mm
21:09 23.6 °C 17.8 °C 1017.8 hPa SW 7.4 km/h 7.4 km/h 70 % 0.0 mm
21:14 23.5 °C 17.7 °C 1017.8 hPa WSW 3.7 km/h 3.7 km/h 70 % 0.0 mm
21:15 21.9 °C 18.5 °C 1017.8 hPa ENE 1.6 km/h 3.2 km/h 81 % 0.0 mm
21:19 23.5 °C 17.7 °C 1017.8 hPa SW 3.9 km/h 3.9 km/h 70 % 0.0 mm
21:24 23.6 °C 18.1 °C 1017.8 hPa SW 3.2 km/h 3.2 km/h 71 % 0.0 mm
21:25 21.8 °C 18.6 °C 1017.8 hPa East 3.2 km/h 3.2 km/h 82 % 0.0 mm
21:29 23.6 °C 18.1 °C 1017.8 hPa WSW 3.7 km/h 3.7 km/h 71 % 0.0 mm
21:34 23.5 °C 17.9 °C 1017.8 hPa SW 3.9 km/h 3.9 km/h 71 % 0.0 mm
21:35 21.6 °C 18.6 °C 1017.8 hPa East 1.6 km/h 4.8 km/h 83 % 0.0 mm
21:39 23.4 °C 17.8 °C 1017.8 hPa SW 4.7 km/h 4.7 km/h 71 % 0.0 mm
21:44 23.3 °C 17.7 °C 1017.8 hPa WSW 5.6 km/h 5.6 km/h 71 % 0.0 mm
21:45 21.3 °C 18.1 °C 1017.8 hPa ENE 4.8 km/h 6.4 km/h 82 % 0.0 mm
21:49 23.3 °C 17.9 °C 1017.8 hPa WSW 5.6 km/h 5.6 km/h 72 % 0.0 mm
21:54 23.3 °C 17.9 °C 1017.8 hPa SW 2.6 km/h 2.6 km/h 72 % 0.0 mm
21:55 21.0 °C 18.0 °C 1017.8 hPa ENE 3.2 km/h 4.8 km/h 83 % 0.0 mm
21:59 23.2 °C 18.1 °C 1017.8 hPa SW 3.5 km/h 3.5 km/h 73 % 0.0 mm
22:04 23.1 °C 18.0 °C 1017.8 hPa SW 1.9 km/h   73 % 0.0 mm
22:05 21.0 °C 18.0 °C 1017.8 hPa NE 1.6 km/h 4.8 km/h 83 % 0.0 mm
22:09 23.1 °C 18.0 °C 1017.8 hPa Calm     73 % 0.0 mm
22:14 23.0 °C 17.9 °C 1017.8 hPa SW 4.2 km/h 4.2 km/h 73 % 0.0 mm
22:15 21.0 °C 18.0 °C 1017.8 hPa NNE 1.6 km/h 3.2 km/h 83 % 0.0 mm
22:19 23.0 °C 17.9 °C 1017.8 hPa SW 1.9 km/h   73 % 0.0 mm
22:24 22.9 °C 18.0 °C 1017.8 hPa SW 1.9 km/h   74 % 0.0 mm
22:25 21.0 °C 18.0 °C 1017.8 hPa NE 1.6 km/h 3.2 km/h 83 % 0.0 mm
22:29 22.9 °C 18.0 °C 1017.8 hPa SW 5.6 km/h 5.6 km/h 74 % 0.0 mm
22:34 22.8 °C 17.9 °C 1017.8 hPa SW 1.9 km/h 1.9 km/h 74 % 0.0 mm
22:35 21.0 °C 18.2 °C 1017.8 hPa NE 1.6 km/h 3.2 km/h 84 % 0.0 mm
22:39 22.7 °C 17.8 °C 1017.8 hPa SW 1.9 km/h 1.9 km/h 74 % 0.0 mm
22:44 22.7 °C 17.8 °C 1017.8 hPa WSW 3.7 km/h 3.7 km/h 74 % 0.0 mm
22:45 20.8 °C 17.6 °C 1017.8 hPa North 1.6 km/h 3.2 km/h 82 % 0.0 mm
22:49 22.6 °C 17.9 °C 1017.8 hPa WSW 3.7 km/h 3.7 km/h 75 % 0.0 mm
22:55 20.5 °C 15.9 °C 1017.8 hPa NW 3.2 km/h 4.8 km/h 75 % 0.0 mm
22:59 22.6 °C 17.9 °C 1017.8 hPa WSW 1.9 km/h   75 % 0.0 mm
23:04 22.7 °C 18.2 °C 1017.8 hPa WSW 1.9 km/h 1.9 km/h 76 % 0.0 mm
23:05 20.6 °C 14.5 °C 1017.8 hPa WNW 3.2 km/h 4.8 km/h 68 % 0.0 mm
23:09 22.7 °C 18.2 °C 1017.8 hPa WSW 3.7 km/h 3.7 km/h 76 % 0.0 mm
23:14 22.7 °C 18.2 °C 1017.8 hPa SW 1.9 km/h 1.9 km/h 76 % 0.0 mm
23:15 20.4 °C 13.6 °C 1016.8 hPa West 3.2 km/h 4.8 km/h 65 % 0.0 mm
23:19 22.7 °C 18.2 °C 1017.8 hPa SW 1.9 km/h   76 % 0.0 mm
23:24 22.8 °C 18.3 °C 1016.8 hPa SW 5.6 km/h 5.6 km/h 76 % 0.0 mm
23:25 20.2 °C 12.9 °C 1016.8 hPa West 1.6 km/h 1.6 km/h 63 % 0.0 mm
23:29 22.8 °C 18.6 °C 1016.8 hPa SW 4.7 km/h 4.7 km/h 77 % 0.0 mm
23:34 22.8 °C 18.3 °C 1016.8 hPa West 5.3 km/h 5.3 km/h 76 % 0.0 mm
23:35 19.9 °C 12.4 °C 1016.8 hPa NW 1.6 km/h 4.8 km/h 62 % 0.0 mm
23:39 22.9 °C 18.7 °C 1017.8 hPa West 3.7 km/h 3.7 km/h 77 % 0.0 mm
23:44 22.9 °C 18.7 °C 1017.8 hPa SW 3.7 km/h 3.7 km/h 77 % 0.0 mm
23:45 19.6 °C 11.9 °C 1015.8 hPa West 3.2 km/h 6.4 km/h 61 % 0.0 mm
23:49 22.8 °C 18.6 °C 1017.8 hPa WSW 3.7 km/h 3.7 km/h 77 % 0.0 mm
23:54 22.8 °C 18.6 °C 1017.8 hPa SW 2.6 km/h 2.6 km/h 77 % 0.0 mm
23:55 19.3 °C 11.3 °C 1015.8 hPa West 1.6 km/h 6.4 km/h 60 % 0.0 mm
23:59 22.8 °C 18.6 °C 1017.8 hPa WSW 3.7 km/h 3.7 km/h 77 % 0.0 mm
Meteo Sesrovires
Elogis d' Weather Underground - 3.75 mb

Guio original per  Jim McMurry - jmcmurry@mwt.net Adaptat per a la plantilla per  Wim van der Kuil - Leuven-Template.eu

Trobareu la nostra informacio del temps tambe a:

Weather Underground

AWEKAS